createdAt,value
2022-12-19T00:01:35.712Z,19.60
2022-12-19T00:04:08.807Z,19.47
2022-12-19T00:06:37.001Z,19.97
2022-12-19T00:09:03.643Z,20.10
2022-12-19T00:11:30.427Z,21.03
2022-12-19T00:13:57.217Z,21.10
2022-12-19T00:16:26.160Z,22.07
2022-12-19T00:18:55.402Z,20.20
2022-12-19T00:21:25.653Z,22.00
2022-12-19T00:23:52.553Z,22.17
2022-12-19T00:26:23.994Z,19.67
2022-12-19T00:28:53.020Z,21.77
2022-12-19T00:31:20.892Z,23.53
2022-12-19T00:33:47.873Z,21.73
2022-12-19T00:36:18.105Z,22.43
2022-12-19T00:38:51.036Z,24.97
2022-12-19T00:41:25.735Z,22.07
2022-12-19T00:43:56.678Z,25.20
2022-12-19T00:46:23.216Z,23.00
2022-12-19T00:48:49.760Z,27.10
2022-12-19T00:51:18.295Z,26.60
2022-12-19T00:53:45.897Z,27.60
2022-12-19T00:56:17.411Z,28.13
2022-12-19T00:58:47.180Z,28.43
2022-12-19T01:01:20.053Z,30.23
2022-12-19T01:04:18.613Z,26.60
2022-12-19T01:06:33.553Z,34.50
2022-12-19T01:09:00.960Z,29.93
2022-12-19T01:11:46.296Z,29.93
2022-12-19T01:14:17.593Z,35.37
2022-12-19T01:16:47.598Z,28.97
2022-12-19T01:19:14.035Z,31.30
2022-12-19T01:21:40.494Z,35.07
2022-12-19T01:24:07.038Z,33.70
2022-12-19T01:26:33.523Z,30.87
2022-12-19T01:28:59.969Z,33.57
2022-12-19T01:31:26.486Z,36.77
2022-12-19T01:33:52.916Z,33.30
2022-12-19T01:36:21.021Z,33.60
2022-12-19T01:38:47.440Z,36.30
2022-12-19T01:41:13.848Z,36.33
2022-12-19T01:44:00.098Z,38.33
2022-12-19T01:46:42.200Z,31.00
2022-12-19T01:49:17.619Z,31.83
2022-12-19T01:51:48.525Z,34.07
2022-12-19T01:54:18.636Z,36.77
2022-12-19T01:56:52.008Z,34.57
2022-12-19T01:59:45.613Z,35.13
2022-12-19T02:02:37.416Z,39.27
2022-12-19T02:05:05.199Z,36.77
2022-12-19T02:07:32.500Z,33.73
2022-12-19T02:09:59.042Z,35.47
2022-12-19T02:12:26.284Z,34.80
2022-12-19T02:14:53.309Z,35.30
2022-12-19T02:17:34.615Z,38.20
2022-12-19T02:20:25.289Z,33.70
2022-12-19T02:23:25.897Z,36.97
2022-12-19T02:26:10.907Z,36.70
2022-12-19T02:29:09.600Z,34.77
2022-12-19T02:31:40.704Z,36.53
2022-12-19T02:34:24.112Z,38.70
2022-12-19T02:36:59.280Z,36.90
2022-12-19T02:39:52.544Z,38.40
2022-12-19T02:42:28.798Z,35.70
2022-12-19T02:44:59.226Z,32.60
2022-12-19T02:47:25.629Z,36.13
2022-12-19T02:49:52.006Z,38.60
2022-12-19T02:52:21.343Z,37.93
2022-12-19T02:54:49.559Z,39.97
2022-12-19T02:57:18.917Z,36.77
2022-12-19T02:59:52.416Z,33.63
2022-12-19T03:03:00.771Z,36.30
2022-12-19T03:05:52.325Z,39.17
2022-12-19T03:08:45.069Z,34.50
2022-12-19T03:11:15.824Z,32.70
2022-12-19T03:13:46.499Z,35.57
2022-12-19T03:16:13.531Z,35.07
2022-12-19T03:18:40.361Z,35.50
2022-12-19T03:21:12.888Z,34.53
2022-12-19T03:23:40.385Z,33.00
2022-12-19T03:26:13.090Z,35.50
2022-12-19T03:28:44.369Z,37.47
2022-12-19T03:31:12.911Z,40.53
2022-12-19T03:33:41.250Z,35.03
2022-12-19T03:36:14.155Z,37.83
2022-12-19T03:38:40.964Z,37.13
2022-12-19T03:41:08.993Z,35.10
2022-12-19T03:43:36.348Z,38.80
2022-12-19T03:46:11.449Z,35.97
2022-12-19T03:48:50.881Z,37.00
2022-12-19T03:51:45.136Z,34.53
2022-12-19T03:54:24.494Z,35.93
2022-12-19T03:56:59.375Z,36.47
2022-12-19T03:59:45.344Z,35.57
2022-12-19T04:02:13.706Z,36.20
2022-12-19T04:04:42.744Z,36.80
2022-12-19T04:07:09.717Z,36.40
2022-12-19T04:09:37.940Z,40.30
2022-12-19T04:12:07.131Z,37.97
2022-12-19T04:14:35.219Z,36.37
2022-12-19T04:17:11.269Z,31.43
2022-12-19T04:19:45.186Z,34.27
2022-12-19T04:22:23.791Z,35.67
2022-12-19T04:24:51.244Z,36.43
2022-12-19T04:27:19.173Z,33.77
2022-12-19T04:29:46.021Z,33.90
2022-12-19T04:32:13.163Z,37.57
2022-12-19T04:34:43.002Z,33.37
2022-12-19T04:37:10.190Z,33.33
2022-12-19T04:39:36.687Z,38.50
2022-12-19T04:42:03.090Z,32.77
2022-12-19T04:44:29.653Z,34.50
2022-12-19T04:46:56.092Z,39.63
2022-12-19T04:49:22.569Z,34.90
2022-12-19T04:51:49.464Z,41.53
2022-12-19T04:54:15.920Z,35.90
2022-12-19T04:56:42.326Z,43.97
2022-12-19T04:59:08.768Z,40.13
2022-12-19T05:01:35.356Z,41.17
2022-12-19T05:04:04.630Z,39.27
2022-12-19T05:06:31.422Z,36.53
2022-12-19T05:08:57.908Z,40.23
2022-12-19T05:11:24.326Z,41.17
2022-12-19T05:13:50.833Z,35.90
2022-12-19T05:16:17.459Z,35.73
2022-12-19T05:18:44.037Z,36.00
2022-12-19T05:21:11.007Z,35.33
2022-12-19T05:23:37.506Z,34.07
2022-12-19T05:26:05.869Z,37.53
2022-12-19T05:28:33.288Z,38.93
2022-12-19T05:31:05.254Z,42.90
2022-12-19T05:33:31.689Z,41.40
2022-12-19T05:35:58.074Z,38.93
2022-12-19T05:38:24.911Z,37.63
2022-12-19T05:40:51.310Z,38.00
2022-12-19T05:43:17.743Z,35.10
2022-12-19T05:45:44.202Z,39.60
2022-12-19T05:48:10.628Z,35.30
2022-12-19T05:50:37.135Z,37.23
2022-12-19T05:53:03.850Z,36.93
2022-12-19T05:55:30.274Z,40.73
2022-12-19T05:57:56.710Z,36.63
2022-12-19T06:00:23.275Z,44.20
2022-12-19T06:02:49.803Z,38.53
2022-12-19T06:05:17.068Z,37.00
2022-12-19T06:07:43.494Z,39.53
2022-12-19T06:10:09.983Z,37.67
2022-12-19T06:12:36.375Z,37.27
2022-12-19T06:15:02.944Z,39.47
2022-12-19T06:17:29.340Z,43.57
2022-12-19T06:19:55.783Z,38.57
2022-12-19T06:22:22.233Z,36.50
2022-12-19T06:24:48.863Z,37.33
2022-12-19T06:27:15.308Z,37.07
2022-12-19T06:29:41.721Z,36.43
2022-12-19T06:32:08.792Z,39.53
2022-12-19T06:35:03.736Z,41.20
2022-12-19T06:37:21.779Z,40.57
2022-12-19T06:39:50.464Z,37.23
2022-12-19T06:42:22.855Z,40.13
2022-12-19T06:44:50.918Z,36.77
2022-12-19T06:47:17.403Z,42.07
2022-12-19T06:49:43.917Z,45.63
2022-12-19T06:52:10.316Z,39.73
2022-12-19T06:54:36.727Z,42.13
2022-12-19T06:57:03.160Z,43.33
2022-12-19T06:59:29.793Z,47.33
2022-12-19T07:02:06.448Z,43.00
2022-12-19T07:04:38.951Z,44.70
2022-12-19T07:07:05.342Z,36.90
2022-12-19T07:09:33.673Z,38.53
2022-12-19T07:12:00.954Z,38.60
2022-12-19T07:14:27.403Z,37.53
2022-12-19T07:16:55.252Z,39.67
2022-12-19T07:19:22.416Z,47.73
2022-12-19T07:21:48.976Z,39.43
2022-12-19T07:24:15.433Z,41.20
2022-12-19T07:26:42.662Z,40.03
2022-12-19T07:29:10.679Z,46.03
2022-12-19T07:31:38.448Z,39.13
2022-12-19T07:34:04.915Z,42.30
2022-12-19T07:36:31.377Z,39.37
2022-12-19T07:38:58.000Z,40.37
2022-12-19T07:41:24.551Z,44.13
2022-12-19T07:43:51.018Z,51.07
2022-12-19T07:46:17.452Z,43.23
2022-12-19T07:48:43.941Z,43.60
2022-12-19T07:51:10.360Z,43.77
2022-12-19T07:53:36.892Z,43.40
2022-12-19T07:56:03.331Z,40.87
2022-12-19T07:58:30.524Z,46.50
2022-12-19T08:00:58.173Z,43.90
2022-12-19T08:03:25.361Z,45.30
2022-12-19T08:05:51.977Z,47.83
2022-12-19T08:08:18.587Z,46.77
2022-12-19T08:10:45.433Z,45.07
2022-12-19T08:13:11.901Z,44.00
2022-12-19T08:15:38.304Z,44.23
2022-12-19T08:18:04.687Z,42.90
2022-12-19T08:20:31.219Z,45.80
2022-12-19T08:22:57.635Z,50.93
2022-12-19T08:25:24.036Z,48.27
2022-12-19T08:27:50.470Z,45.73
2022-12-19T08:30:16.996Z,49.30
2022-12-19T08:32:45.004Z,46.77
2022-12-19T08:35:11.670Z,47.73
2022-12-19T08:37:38.697Z,46.53
2022-12-19T08:40:05.758Z,50.60
2022-12-19T08:42:33.521Z,47.90
2022-12-19T08:45:00.029Z,49.27
2022-12-19T08:47:26.710Z,44.17
2022-12-19T08:49:53.151Z,45.27
2022-12-19T08:52:19.609Z,51.17
2022-12-19T08:54:46.064Z,42.47
2022-12-19T08:57:12.787Z,44.47
2022-12-19T08:59:39.225Z,41.80
2022-12-19T09:02:06.918Z,47.13
2022-12-19T09:06:00.497Z,53.00
2022-12-19T09:07:19.953Z,46.20
2022-12-19T09:09:46.432Z,49.47
2022-12-19T09:12:14.296Z,48.70
2022-12-19T09:14:40.934Z,51.13
2022-12-19T09:17:07.466Z,46.57
2022-12-19T09:19:34.101Z,47.30
2022-12-19T09:22:00.572Z,55.93
2022-12-19T09:24:27.318Z,50.10
2022-12-19T09:26:53.852Z,46.07
2022-12-19T09:29:21.818Z,45.60
2022-12-19T09:31:56.321Z,47.13
2022-12-19T09:34:38.033Z,45.03
2022-12-19T09:37:16.882Z,43.30
2022-12-19T09:39:45.591Z,44.50
2022-12-19T09:42:40.570Z,45.10
2022-12-19T09:45:32.204Z,43.40
2022-12-19T09:48:00.267Z,40.57
2022-12-19T09:50:54.669Z,45.53
2022-12-19T09:53:29.235Z,40.07
2022-12-19T09:55:58.296Z,39.03
2022-12-19T09:58:31.132Z,41.63
2022-12-19T10:01:00.225Z,43.13
2022-12-19T10:03:40.924Z,38.47
2022-12-19T10:07:18.303Z,36.87
2022-12-19T10:10:21.726Z,36.83
2022-12-19T10:12:47.126Z,38.27
2022-12-19T10:15:20.289Z,38.57
2022-12-19T10:17:58.794Z,39.67
2022-12-19T10:20:36.006Z,38.70
2022-12-19T10:23:31.979Z,34.83
2022-12-19T10:26:21.217Z,33.60
2022-12-19T10:29:07.544Z,33.90
2022-12-19T10:31:53.764Z,35.93
2022-12-19T10:34:44.545Z,32.33
2022-12-19T10:37:26.588Z,35.40
2022-12-19T10:40:31.151Z,29.87
2022-12-19T10:43:30.649Z,32.10
2022-12-19T10:46:06.299Z,33.27
2022-12-19T10:48:32.749Z,27.47
2022-12-19T10:51:05.197Z,33.20
2022-12-19T10:53:33.281Z,26.77
2022-12-19T10:56:02.131Z,31.77
2022-12-19T10:58:36.823Z,29.67
2022-12-19T11:01:22.028Z,25.23
2022-12-19T11:03:52.623Z,27.57
2022-12-19T11:06:34.912Z,24.90
2022-12-19T11:09:21.010Z,25.37
2022-12-19T11:13:32.224Z,21.90
2022-12-19T11:19:04.677Z,25.00
2022-12-19T11:23:45.327Z,21.37
2022-12-19T11:29:18.198Z,23.27
2022-12-19T11:29:54.946Z,24.80
2022-12-19T11:30:37.767Z,24.13
2022-12-19T11:30:47.107Z,24.33
2022-12-19T11:34:27.562Z,24.87
2022-12-19T11:37:01.636Z,27.57
2022-12-19T11:39:34.108Z,25.20
2022-12-19T11:42:08.423Z,30.83
2022-12-19T11:44:40.302Z,28.10
2022-12-19T11:47:21.202Z,25.10
2022-12-19T11:49:52.235Z,30.20
2022-12-19T11:53:02.400Z,27.63
2022-12-19T11:55:37.584Z,25.50
2022-12-19T11:58:05.105Z,28.03
2022-12-19T12:00:32.847Z,28.40
2022-12-19T12:03:14.571Z,29.47
2022-12-19T12:05:51.976Z,27.13
2022-12-19T12:10:35.937Z,27.10
2022-12-19T12:19:53.839Z,24.07
2022-12-19T12:24:17.668Z,25.37
2022-12-19T12:28:57.218Z,27.10
2022-12-19T12:31:23.833Z,26.70
2022-12-19T12:31:27.247Z,26.10
2022-12-19T12:31:47.315Z,28.67
2022-12-19T12:31:48.868Z,24.67
2022-12-19T12:35:11.082Z,26.57
2022-12-19T12:38:48.011Z,34.83
2022-12-19T12:41:47.511Z,26.87
2022-12-19T12:44:15.075Z,24.40
2022-12-19T12:46:48.356Z,31.13
2022-12-19T12:49:35.262Z,27.80
2022-12-19T12:52:03.415Z,29.20
2022-12-19T12:54:34.551Z,25.90
2022-12-19T12:57:02.444Z,27.47
2022-12-19T12:59:30.069Z,31.50
2022-12-19T13:02:01.908Z,27.93
2022-12-19T13:04:34.554Z,28.90
2022-12-19T13:07:14.915Z,28.37
2022-12-19T13:09:41.581Z,26.53
2022-12-19T13:12:46.397Z,26.83
2022-12-19T13:15:22.073Z,24.23
2022-12-19T13:17:48.917Z,27.37
2022-12-19T13:20:18.919Z,25.30
2022-12-19T13:23:02.689Z,25.43
2022-12-19T13:25:36.367Z,28.70
2022-12-19T13:28:03.007Z,29.83
2022-12-19T13:30:31.056Z,29.50
2022-12-19T13:33:00.606Z,28.37
2022-12-19T13:38:24.391Z,27.47
2022-12-19T13:39:55.641Z,32.00
2022-12-19T13:41:48.726Z,26.77
2022-12-19T13:44:20.105Z,28.10
2022-12-19T13:46:46.766Z,30.87
2022-12-19T13:49:30.474Z,34.07
2022-12-19T13:52:00.246Z,34.97
2022-12-19T13:54:36.009Z,26.97
2022-12-19T13:57:09.041Z,30.30
2022-12-19T13:59:38.306Z,28.00
2022-12-19T14:02:16.803Z,33.97
2022-12-19T14:04:44.547Z,29.30
2022-12-19T14:07:37.119Z,27.37
2022-12-19T14:11:38.869Z,31.10
2022-12-19T14:14:00.799Z,32.43
2022-12-19T14:16:43.302Z,26.07
2022-12-19T14:19:24.905Z,26.20
2022-12-19T14:22:04.100Z,28.57
2022-12-19T14:24:35.327Z,25.80
2022-12-19T14:28:22.351Z,28.27
2022-12-19T14:30:27.815Z,27.13
2022-12-19T14:33:40.144Z,27.50
2022-12-19T14:36:09.090Z,26.97
2022-12-19T14:39:22.085Z,26.37
2022-12-19T14:41:48.198Z,26.40
2022-12-19T14:54:06.784Z,27.80
2022-12-19T14:54:06.892Z,30.30
2022-12-19T14:54:15.866Z,25.67
2022-12-19T14:54:44.282Z,28.40
2022-12-19T14:59:31.554Z,22.33
2022-12-19T15:02:07.366Z,27.33
2022-12-19T15:04:52.361Z,31.43
2022-12-19T15:07:23.836Z,31.13
2022-12-19T15:11:09.294Z,30.03
2022-12-19T15:14:53.595Z,24.17
2022-12-19T15:16:02.196Z,32.13
2022-12-19T15:18:40.377Z,28.53
2022-12-19T15:21:12.630Z,33.30
2022-12-19T15:23:39.080Z,33.73
2022-12-19T15:26:13.053Z,37.20
2022-12-19T15:28:50.655Z,29.63
2022-12-19T15:31:38.368Z,32.87
2022-12-19T15:34:35.481Z,30.87
2022-12-19T15:37:02.815Z,28.53
2022-12-19T15:39:32.417Z,25.77
2022-12-19T15:41:59.726Z,29.97
2022-12-19T15:44:41.416Z,25.40
2022-12-19T15:47:33.303Z,28.07
2022-12-19T15:50:02.665Z,29.60
2022-12-19T15:52:29.658Z,23.17
2022-12-19T15:54:57.430Z,24.23
2022-12-19T15:57:36.233Z,27.57
2022-12-19T16:00:08.452Z,23.70
2022-12-19T16:03:13.383Z,26.20
2022-12-19T16:05:27.902Z,22.40
2022-12-19T16:07:54.877Z,21.80
2022-12-19T16:10:21.934Z,23.03
2022-12-19T16:12:51.092Z,23.97
2022-12-19T16:15:27.653Z,25.23
2022-12-19T16:17:55.006Z,28.30
2022-12-19T16:20:26.946Z,26.33
2022-12-19T16:22:54.900Z,22.37
2022-12-19T16:25:22.197Z,23.00
2022-12-19T16:27:55.708Z,23.07
2022-12-19T16:30:28.782Z,22.13
2022-12-19T16:32:55.468Z,19.43
2022-12-19T16:35:54.570Z,22.63
2022-12-19T16:38:10.761Z,21.07
2022-12-19T16:40:37.217Z,21.07
2022-12-19T16:43:06.408Z,22.27
2022-12-19T16:45:34.033Z,22.73
2022-12-19T16:48:00.567Z,21.27
2022-12-19T16:50:30.085Z,23.53
2022-12-19T16:52:57.421Z,21.33
2022-12-19T16:55:25.127Z,24.67
2022-12-19T16:57:53.683Z,25.40
2022-12-19T17:00:21.407Z,21.77
2022-12-19T17:02:57.213Z,21.23
2022-12-19T17:05:32.059Z,22.10
2022-12-19T17:07:59.476Z,24.47
2022-12-19T17:10:29.829Z,24.80
2022-12-19T17:12:57.024Z,25.87
2022-12-19T17:15:28.067Z,30.33
2022-12-19T17:17:57.812Z,21.60
2022-12-19T17:20:27.064Z,24.03
2022-12-19T17:22:53.535Z,23.83
2022-12-19T17:25:24.443Z,21.27
2022-12-19T17:27:51.740Z,20.00
2022-12-19T17:30:18.794Z,25.77
2022-12-19T17:32:47.690Z,23.10
2022-12-19T17:35:25.720Z,22.10
2022-12-19T17:37:56.371Z,26.23
2022-12-19T17:40:26.009Z,23.60
2022-12-19T17:42:52.903Z,24.90
2022-12-19T17:45:19.479Z,24.47
2022-12-19T17:47:46.278Z,26.10
2022-12-19T17:50:20.339Z,22.77
2022-12-19T17:52:46.730Z,23.17
2022-12-19T17:55:18.437Z,22.43
2022-12-19T17:57:44.873Z,24.00
2022-12-19T18:00:12.035Z,20.37
2022-12-19T18:02:38.660Z,19.60
2022-12-19T18:05:05.553Z,21.37
2022-12-19T18:07:32.017Z,24.27
2022-12-19T18:09:58.558Z,23.63
2022-12-19T18:12:25.000Z,20.33
2022-12-19T18:14:51.843Z,25.13
2022-12-19T18:17:25.646Z,21.23
2022-12-19T18:19:52.599Z,21.27
2022-12-19T18:22:19.001Z,21.63
2022-12-19T18:24:45.415Z,18.80
2022-12-19T18:27:11.876Z,22.27
2022-12-19T18:29:38.529Z,19.33
2022-12-19T18:32:05.127Z,20.87
2022-12-19T18:34:32.126Z,22.10
2022-12-19T18:36:58.611Z,19.97
2022-12-19T18:39:27.666Z,18.60
2022-12-19T18:41:54.451Z,17.50
2022-12-19T18:44:22.961Z,22.07
2022-12-19T18:46:50.529Z,18.27
2022-12-19T18:49:17.199Z,17.27
2022-12-19T18:51:44.926Z,21.43
2022-12-19T18:54:15.633Z,18.17
2022-12-19T18:56:42.135Z,19.63
2022-12-19T18:59:09.077Z,19.30
2022-12-19T19:01:40.043Z,15.77
2022-12-19T19:04:07.166Z,14.83
2022-12-19T19:06:37.917Z,16.90
2022-12-19T19:09:10.940Z,16.27
2022-12-19T19:11:37.335Z,18.93
2022-12-19T19:14:03.722Z,18.03
2022-12-19T19:16:30.691Z,16.20
2022-12-19T19:18:57.465Z,14.60
2022-12-19T19:21:27.360Z,18.80
2022-12-19T19:24:07.472Z,15.27
2022-12-19T19:26:34.087Z,17.97
2022-12-19T19:29:00.561Z,16.07
2022-12-19T19:31:28.242Z,16.57
2022-12-19T19:33:59.184Z,17.63
2022-12-19T19:36:28.366Z,15.27
2022-12-19T19:38:55.948Z,19.17
2022-12-19T19:41:24.224Z,19.77
2022-12-19T19:43:50.627Z,18.53
2022-12-19T19:46:19.182Z,15.27
2022-12-19T19:48:45.682Z,18.07
2022-12-19T19:51:15.530Z,16.10
2022-12-19T19:53:42.159Z,16.50
2022-12-19T19:56:08.609Z,19.10
2022-12-19T19:58:35.100Z,17.50
2022-12-19T20:01:10.239Z,15.20
2022-12-19T20:03:37.381Z,18.00
2022-12-19T20:06:03.999Z,16.67
2022-12-19T20:08:38.645Z,19.47
2022-12-19T20:11:06.359Z,13.23
2022-12-19T20:13:33.349Z,18.63
2022-12-19T20:16:08.433Z,14.97
2022-12-19T20:18:36.038Z,19.03
2022-12-19T20:21:04.576Z,13.90
2022-12-19T20:23:32.997Z,14.03
2022-12-19T20:26:03.457Z,15.07
2022-12-19T20:28:30.326Z,14.90
2022-12-19T20:30:57.266Z,16.13
2022-12-19T20:33:23.719Z,13.10
2022-12-19T20:35:50.652Z,14.10
2022-12-19T20:38:17.138Z,11.73
2022-12-19T20:40:45.413Z,12.87
2022-12-19T20:43:11.858Z,12.77
2022-12-19T20:45:38.447Z,15.47
2022-12-19T20:48:05.088Z,14.57
2022-12-19T20:50:31.514Z,15.43
2022-12-19T20:52:58.096Z,14.47
2022-12-19T20:55:24.618Z,16.20
2022-12-19T20:57:51.074Z,12.93
2022-12-19T21:00:18.082Z,15.17
2022-12-19T21:03:25.924Z,13.63
2022-12-19T21:05:31.083Z,16.70
2022-12-19T21:07:57.633Z,15.10
2022-12-19T21:10:24.293Z,14.70
2022-12-19T21:12:50.796Z,15.47
2022-12-19T21:15:17.813Z,15.87
2022-12-19T21:17:44.328Z,15.00
2022-12-19T21:20:11.328Z,14.60
2022-12-19T21:22:37.784Z,14.77
2022-12-19T21:25:05.182Z,13.50
2022-12-19T21:27:31.625Z,14.63
2022-12-19T21:29:58.202Z,16.67
2022-12-19T21:32:24.745Z,13.73
2022-12-19T21:34:53.564Z,15.90
2022-12-19T21:37:20.083Z,14.30
2022-12-19T21:39:46.499Z,12.27
2022-12-19T21:42:12.921Z,13.60
2022-12-19T21:44:39.428Z,12.93
2022-12-19T21:47:06.055Z,15.73
2022-12-19T21:49:32.584Z,15.77
2022-12-19T21:51:58.978Z,18.37
2022-12-19T21:54:25.666Z,18.67
2022-12-19T21:56:52.161Z,12.60
2022-12-19T21:59:18.743Z,16.27
2022-12-19T22:01:45.736Z,16.57
2022-12-19T22:04:14.860Z,14.43
2022-12-19T22:06:41.585Z,13.17
2022-12-19T22:09:10.596Z,13.37
2022-12-19T22:11:37.124Z,12.13
2022-12-19T22:14:04.978Z,13.17
2022-12-19T22:16:31.732Z,12.60
2022-12-19T22:18:59.052Z,15.07
2022-12-19T22:21:26.069Z,13.10
2022-12-19T22:23:52.638Z,15.90
2022-12-19T22:26:21.698Z,15.00
2022-12-19T22:28:50.179Z,17.03
2022-12-19T22:31:17.846Z,12.93
2022-12-19T22:33:44.655Z,12.20
2022-12-19T22:36:15.232Z,11.20
2022-12-19T22:38:43.544Z,11.93
2022-12-19T22:41:10.054Z,16.77
2022-12-19T22:43:37.418Z,16.03
2022-12-19T22:46:17.373Z,14.17
2022-12-19T22:48:45.356Z,13.20
2022-12-19T22:51:12.305Z,16.80
2022-12-19T22:53:39.596Z,16.70
2022-12-19T22:56:10.283Z,11.67
2022-12-19T22:58:37.749Z,13.50
2022-12-19T23:01:20.500Z,12.07
2022-12-19T23:03:48.686Z,14.17
2022-12-19T23:06:16.459Z,13.17
2022-12-19T23:08:43.629Z,11.73
2022-12-19T23:11:12.100Z,18.00
2022-12-19T23:13:39.917Z,13.77
2022-12-19T23:16:06.528Z,11.97
2022-12-19T23:18:33.101Z,14.60
2022-12-19T23:21:19.817Z,13.30
2022-12-19T23:23:48.211Z,11.20
2022-12-19T23:26:18.224Z,16.10
2022-12-19T23:28:50.304Z,11.10
2022-12-19T23:31:16.752Z,11.07
2022-12-19T23:33:43.433Z,11.60
2022-12-19T23:36:10.798Z,10.20
2022-12-19T23:38:37.226Z,13.27
2022-12-19T23:41:07.326Z,12.27
2022-12-19T23:43:34.988Z,14.97
2022-12-19T23:46:10.634Z,9.87
2022-12-19T23:48:37.170Z,11.37
2022-12-19T23:51:06.545Z,10.17
2022-12-19T23:53:34.177Z,16.40
2022-12-19T23:56:03.360Z,12.87
2022-12-19T23:58:29.984Z,11.67
